Zephyrhills, Florida
Current Conditions -  °F | °C
As of 5:35 AM on Friday 21 Nov 2014 (Local Time) from KZPH Reporting Station
Clear Clear  
Wind Chill: 45°   Ceiling: Unl
Heat Index: 45°   Visibility: 10mi
Dew Point: 36°   Wind: 0mph
Humidity: 71%   Direction: NA
Pressure: 30.24"   Gusts: NA
Location:  28.23°N, 82.18°W
Report Text: KZPH 211035Z AUTO 00000KT 10SM CLR 07/02 A3024 RMK AO2
Loading
Personal Weather Stations






























Interactive Weather Map New forecast layout! Learn more

10-Day Weather Forecast

Advertisements
Track Severe Weather on mobile